sensor_id;sensor_type;location;lat;lon;timestamp;P1;P2;P0
50589;PMS7003;36547;50.514;30.840;2023-08-06T00:00:37;16.60;15.50;12.80
50589;PMS7003;36547;50.514;30.840;2023-08-06T00:01:40;15.64;15.00;12.27
50589;PMS7003;36547;50.514;30.840;2023-08-06T00:02:43;16.40;16.30;13.10
50589;PMS7003;36547;50.514;30.840;2023-08-06T00:03:46;18.91;16.64;12.91
50589;PMS7003;36547;50.514;30.840;2023-08-06T00:04:48;19.90;19.10;13.90
50589;PMS7003;36547;50.514;30.840;2023-08-06T00:05:51;15.90;15.30;12.10
50589;PMS7003;36547;50.514;30.840;2023-08-06T00:06:53;17.40;16.00;12.10
50589;PMS7003;36547;50.514;30.840;2023-08-06T00:07:56;15.40;14.40;12.10
50589;PMS7003;36547;50.514;30.840;2023-08-06T00:09:00;17.00;15.80;11.90
50589;PMS7003;36547;50.514;30.840;2023-08-06T00:10:03;17.45;16.55;13.18
50589;PMS7003;36547;50.514;30.840;2023-08-06T00:11:06;18.20;18.20;14.10
50589;PMS7003;36547;50.514;30.840;2023-08-06T00:12:08;19.30;17.20;13.00
50589;PMS7003;36547;50.514;30.840;2023-08-06T00:13:12;15.90;14.90;11.80
50589;PMS7003;36547;50.514;30.840;2023-08-06T00:14:14;18.50;16.90;13.20
50589;PMS7003;36547;50.514;30.840;2023-08-06T00:15:17;16.10;16.00;12.60
50589;PMS7003;36547;50.514;30.840;2023-08-06T00:16:19;16.50;16.50;13.50
50589;PMS7003;36547;50.514;30.840;2023-08-06T00:17:22;16.00;15.00;12.20
50589;PMS7003;36547;50.514;30.840;2023-08-06T00:18:24;16.90;16.30;13.40
50589;PMS7003;36547;50.514;30.840;2023-08-06T00:19:27;16.90;16.50;12.80
50589;PMS7003;36547;50.514;30.840;2023-08-06T00:20:29;16.10;15.50;11.80
50589;PMS7003;36547;50.514;30.840;2023-08-06T00:21:32;17.80;16.90;13.50
50589;PMS7003;36547;50.514;30.840;2023-08-06T00:22:35;17.00;16.30;12.20
50589;PMS7003;36547;50.514;30.840;2023-08-06T00:23:39;18.10;16.90;12.80
50589;PMS7003;36547;50.514;30.840;2023-08-06T00:24:42;16.70;16.40;13.20
50589;PMS7003;36547;50.514;30.840;2023-08-06T00:25:44;17.00;17.00;13.80
50589;PMS7003;36547;50.514;30.840;2023-08-06T00:26:46;16.40;15.20;12.80
50589;PMS7003;36547;50.514;30.840;2023-08-06T00:27:49;18.50;16.40;12.60
50589;PMS7003;36547;50.514;30.840;2023-08-06T00:28:51;17.30;16.30;13.10
50589;PMS7003;36547;50.514;30.840;2023-08-06T00:29:53;18.20;16.80;14.30
50589;PMS7003;36547;50.514;30.840;2023-08-06T00:30:57;21.70;18.40;14.60
50589;PMS7003;36547;50.514;30.840;2023-08-06T00:31:59;15.40;15.00;12.30
50589;PMS7003;36547;50.514;30.840;2023-08-06T00:33:02;18.64;18.27;12.91
50589;PMS7003;36547;50.514;30.840;2023-08-06T00:34:05;17.40;15.80;12.30
50589;PMS7003;36547;50.514;30.840;2023-08-06T00:35:07;17.70;16.60;12.00
50589;PMS7003;36547;50.514;30.840;2023-08-06T00:36:10;15.70;15.70;12.10
50589;PMS7003;36547;50.514;30.840;2023-08-06T00:37:12;16.80;15.80;12.10
50589;PMS7003;36547;50.514;30.840;2023-08-06T00:38:15;15.00;14.10;12.10
50589;PMS7003;36547;50.514;30.840;2023-08-06T00:39:17;17.60;16.30;12.60
50589;PMS7003;36547;50.514;30.840;2023-08-06T00:40:20;14.60;13.60;10.90
50589;PMS7003;36547;50.514;30.840;2023-08-06T00:41:23;14.70;14.70;12.10
50589;PMS7003;36547;50.514;30.840;2023-08-06T00:42:25;17.00;16.40;13.20
50589;PMS7003;36547;50.514;30.840;2023-08-06T00:43:27;17.50;16.00;13.10
50589;PMS7003;36547;50.514;30.840;2023-08-06T00:44:30;16.20;15.30;11.50
50589;PMS7003;36547;50.514;30.840;2023-08-06T00:45:33;16.82;16.55;12.00
50589;PMS7003;36547;50.514;30.840;2023-08-06T00:46:38;15.10;15.10;12.90
50589;PMS7003;36547;50.514;30.840;2023-08-06T00:47:41;19.00;17.40;13.40
50589;PMS7003;36547;50.514;30.840;2023-08-06T00:48:44;14.30;13.70;12.10
50589;PMS7003;36547;50.514;30.840;2023-08-06T00:49:47;18.40;16.90;13.40
50589;PMS7003;36547;50.514;30.840;2023-08-06T00:50:49;18.18;18.00;14.36
50589;PMS7003;36547;50.514;30.840;2023-08-06T00:51:53;18.00;16.70;12.90
50589;PMS7003;36547;50.514;30.840;2023-08-06T00:52:56;17.30;16.60;13.20
50589;PMS7003;36547;50.514;30.840;2023-08-06T00:53:59;15.30;15.00;13.10
50589;PMS7003;36547;50.514;30.840;2023-08-06T00:55:04;19.30;17.50;13.50
50589;PMS7003;36547;50.514;30.840;2023-08-06T00:56:08;18.10;17.30;13.10
50589;PMS7003;36547;50.514;30.840;2023-08-06T00:57:11;17.00;15.50;12.30
50589;PMS7003;36547;50.514;30.840;2023-08-06T00:58:14;17.80;16.90;13.70
50589;PMS7003;36547;50.514;30.840;2023-08-06T00:59:20;17.20;15.60;12.90
50589;PMS7003;36547;50.514;30.840;2023-08-06T01:00:27;16.90;15.60;12.30
50589;PMS7003;36547;50.514;30.840;2023-08-06T01:01:32;18.90;15.40;12.10
50589;PMS7003;36547;50.514;30.840;2023-08-06T01:02:39;13.70;13.70;11.50
50589;PMS7003;36547;50.514;30.840;2023-08-06T01:03:44;17.20;15.00;11.80
50589;PMS7003;36547;50.514;30.840;2023-08-06T01:04:53;16.50;15.40;11.20
50589;PMS7003;36547;50.514;30.840;2023-08-06T01:05:57;16.70;16.20;12.60
50589;PMS7003;36547;50.514;30.840;2023-08-06T01:08:48;15.80;15.80;12.50
50589;PMS7003;36547;50.514;30.840;2023-08-06T01:09:53;15.80;15.10;11.20
50589;PMS7003;36547;50.514;30.840;2023-08-06T01:12:57;10.30;9.80;6.10
50589;PMS7003;36547;50.514;30.840;2023-08-06T01:14:02;15.80;13.40;10.40
50589;PMS7003;36547;50.514;30.840;2023-08-06T01:15:21;15.60;14.40;11.30
50589;PMS7003;36547;50.514;30.840;2023-08-06T01:16:22;15.70;15.10;11.30
50589;PMS7003;36547;50.514;30.840;2023-08-06T01:17:27;18.20;15.50;11.50
50589;PMS7003;36547;50.514;30.840;2023-08-06T01:18:31;15.50;14.80;12.00
50589;PMS7003;36547;50.514;30.840;2023-08-06T01:19:36;14.10;14.10;11.30
50589;PMS7003;36547;50.514;30.840;2023-08-06T01:20:38;16.40;14.30;11.10
50589;PMS7003;36547;50.514;30.840;2023-08-06T01:21:41;16.80;15.90;12.10
50589;PMS7003;36547;50.514;30.840;2023-08-06T01:22:43;16.00;15.50;11.80
50589;PMS7003;36547;50.514;30.840;2023-08-06T01:23:45;17.30;17.00;13.00
50589;PMS7003;36547;50.514;30.840;2023-08-06T01:24:49;16.40;15.70;11.90
50589;PMS7003;36547;50.514;30.840;2023-08-06T01:29:03;17.80;16.50;13.70
50589;PMS7003;36547;50.514;30.840;2023-08-06T01:30:13;16.00;16.00;13.40
50589;PMS7003;36547;50.514;30.840;2023-08-06T01:31:30;18.20;17.50;13.90
50589;PMS7003;36547;50.514;30.840;2023-08-06T01:32:35;14.90;14.30;11.50
50589;PMS7003;36547;50.514;30.840;2023-08-06T01:33:42;17.10;15.90;12.90
50589;PMS7003;36547;50.514;30.840;2023-08-06T01:34:47;15.90;15.90;13.40
50589;PMS7003;36547;50.514;30.840;2023-08-06T01:35:52;17.30;16.50;12.30
50589;PMS7003;36547;50.514;30.840;2023-08-06T01:36:57;18.00;17.50;14.50
50589;PMS7003;36547;50.514;30.840;2023-08-06T01:38:01;18.20;16.30;12.60
50589;PMS7003;36547;50.514;30.840;2023-08-06T01:39:05;16.10;16.10;13.00
50589;PMS7003;36547;50.514;30.840;2023-08-06T01:40:11;18.60;17.10;12.10
50589;PMS7003;36547;50.514;30.840;2023-08-06T01:41:15;18.40;17.00;12.40
50589;PMS7003;36547;50.514;30.840;2023-08-06T01:42:17;15.40;15.40;13.10
50589;PMS7003;36547;50.514;30.840;2023-08-06T01:43:21;17.60;17.00;13.70
50589;PMS7003;36547;50.514;30.840;2023-08-06T01:44:24;18.18;17.91;13.36
50589;PMS7003;36547;50.514;30.840;2023-08-06T01:45:27;15.60;14.80;12.30
50589;PMS7003;36547;50.514;30.840;2023-08-06T01:46:30;16.27;15.27;12.00
50589;PMS7003;36547;50.514;30.840;2023-08-06T01:47:33;18.50;17.10;13.60
50589;PMS7003;36547;50.514;30.840;2023-08-06T01:48:36;16.30;16.30;13.60
50589;PMS7003;36547;50.514;30.840;2023-08-06T01:49:39;17.50;16.90;13.50
50589;PMS7003;36547;50.514;30.840;2023-08-06T01:50:41;18.00;18.00;13.20
50589;PMS7003;36547;50.514;30.840;2023-08-06T01:51:44;15.00;15.00;11.70
50589;PMS7003;36547;50.514;30.840;2023-08-06T01:52:46;18.00;17.20;12.60
50589;PMS7003;36547;50.514;30.840;2023-08-06T01:53:49;17.10;16.40;12.50
50589;PMS7003;36547;50.514;30.840;2023-08-06T01:54:53;13.90;13.60;10.80
50589;PMS7003;36547;50.514;30.840;2023-08-06T01:55:56;19.50;18.00;13.20
50589;PMS7003;36547;50.514;30.840;2023-08-06T01:56:59;17.40;16.40;12.30
50589;PMS7003;36547;50.514;30.840;2023-08-06T01:58:01;16.70;15.70;12.00
50589;PMS7003;36547;50.514;30.840;2023-08-06T01:59:03;16.70;15.10;12.00
50589;PMS7003;36547;50.514;30.840;2023-08-06T02:00:07;17.60;16.40;12.30
50589;PMS7003;36547;50.514;30.840;2023-08-06T02:01:17;19.80;18.80;13.30
50589;PMS7003;36547;50.514;30.840;2023-08-06T02:02:19;16.40;15.70;12.30
50589;PMS7003;36547;50.514;30.840;2023-08-06T02:03:22;16.30;16.20;12.20
50589;PMS7003;36547;50.514;30.840;2023-08-06T02:04:24;16.70;16.50;13.30
50589;PMS7003;36547;50.514;30.840;2023-08-06T02:05:27;17.36;15.82;12.64
50589;PMS7003;36547;50.514;30.840;2023-08-06T02:06:29;17.90;17.90;12.90
50589;PMS7003;36547;50.514;30.840;2023-08-06T02:07:32;16.80;16.10;12.90
50589;PMS7003;36547;50.514;30.840;2023-08-06T02:08:34;18.10;17.00;12.70
50589;PMS7003;36547;50.514;30.840;2023-08-06T02:09:37;15.10;15.10;11.60
50589;PMS7003;36547;50.514;30.840;2023-08-06T02:10:39;15.90;14.80;11.80
50589;PMS7003;36547;50.514;30.840;2023-08-06T02:11:42;17.30;15.90;12.20
50589;PMS7003;36547;50.514;30.840;2023-08-06T02:12:45;15.50;15.50;11.60
50589;PMS7003;36547;50.514;30.840;2023-08-06T02:13:48;21.00;16.91;13.09
50589;PMS7003;36547;50.514;30.840;2023-08-06T02:14:52;17.10;14.50;12.00
50589;PMS7003;36547;50.514;30.840;2023-08-06T02:15:55;16.00;16.00;12.00
50589;PMS7003;36547;50.514;30.840;2023-08-06T02:16:57;16.20;16.20;11.30
50589;PMS7003;36547;50.514;30.840;2023-08-06T02:18:00;16.64;15.09;11.45
50589;PMS7003;36547;50.514;30.840;2023-08-06T02:19:02;14.40;14.40;12.30
50589;PMS7003;36547;50.514;30.840;2023-08-06T02:20:06;16.80;16.30;12.30
50589;PMS7003;36547;50.514;30.840;2023-08-06T02:21:09;14.50;14.50;11.20
50589;PMS7003;36547;50.514;30.840;2023-08-06T02:22:12;16.60;13.90;10.80
50589;PMS7003;36547;50.514;30.840;2023-08-06T02:23:14;17.10;14.60;11.10
50589;PMS7003;36547;50.514;30.840;2023-08-06T02:24:16;16.40;14.80;11.20
50589;PMS7003;36547;50.514;30.840;2023-08-06T02:25:19;14.50;12.80;10.80
50589;PMS7003;36547;50.514;30.840;2023-08-06T02:26:21;14.30;13.80;11.50
50589;PMS7003;36547;50.514;30.840;2023-08-06T02:27:24;16.70;15.40;11.60
50589;PMS7003;36547;50.514;30.840;2023-08-06T02:28:26;15.10;14.40;11.30
50589;PMS7003;36547;50.514;30.840;2023-08-06T02:29:29;16.00;15.80;11.70
50589;PMS7003;36547;50.514;30.840;2023-08-06T02:30:32;11.50;11.50;9.30
50589;PMS7003;36547;50.514;30.840;2023-08-06T02:31:34;17.00;16.30;12.20
50589;PMS7003;36547;50.514;30.840;2023-08-06T02:32:36;15.50;15.50;13.00
50589;PMS7003;36547;50.514;30.840;2023-08-06T02:33:40;18.20;16.60;12.50
50589;PMS7003;36547;50.514;30.840;2023-08-06T02:34:42;17.30;16.10;12.80
50589;PMS7003;36547;50.514;30.840;2023-08-06T02:35:45;15.82;15.73;13.00
50589;PMS7003;36547;50.514;30.840;2023-08-06T02:36:47;16.90;16.60;13.80
50589;PMS7003;36547;50.514;30.840;2023-08-06T02:37:50;20.40;19.40;14.10
50589;PMS7003;36547;50.514;30.840;2023-08-06T02:38:52;16.60;14.70;11.80
50589;PMS7003;36547;50.514;30.840;2023-08-06T02:39:54;18.50;16.40;12.90
50589;PMS7003;36547;50.514;30.840;2023-08-06T02:40:57;16.50;16.50;13.30
50589;PMS7003;36547;50.514;30.840;2023-08-06T02:42:00;17.18;16.27;11.82
50589;PMS7003;36547;50.514;30.840;2023-08-06T02:43:05;15.70;15.10;11.60
50589;PMS7003;36547;50.514;30.840;2023-08-06T02:44:07;16.90;15.90;12.00
50589;PMS7003;36547;50.514;30.840;2023-08-06T02:45:09;16.30;15.60;11.20
50589;PMS7003;36547;50.514;30.840;2023-08-06T02:46:14;17.60;17.50;12.10
50589;PMS7003;36547;50.514;30.840;2023-08-06T02:47:16;14.50;14.50;11.50
50589;PMS7003;36547;50.514;30.840;2023-08-06T02:48:19;18.70;17.30;14.20
50589;PMS7003;36547;50.514;30.840;2023-08-06T02:49:22;16.30;15.60;11.40
50589;PMS7003;36547;50.514;30.840;2023-08-06T02:50:25;13.80;13.50;10.70
50589;PMS7003;36547;50.514;30.840;2023-08-06T02:51:27;14.80;14.40;10.70
50589;PMS7003;36547;50.514;30.840;2023-08-06T02:52:30;16.91;16.00;12.64
50589;PMS7003;36547;50.514;30.840;2023-08-06T02:53:32;14.10;14.10;11.10
50589;PMS7003;36547;50.514;30.840;2023-08-06T02:54:37;14.20;14.10;10.00
50589;PMS7003;36547;50.514;30.840;2023-08-06T02:55:45;17.00;15.82;12.18
50589;PMS7003;36547;50.514;30.840;2023-08-06T02:56:55;17.30;16.70;12.80
50589;PMS7003;36547;50.514;30.840;2023-08-06T02:57:59;16.60;16.60;12.70
50589;PMS7003;36547;50.514;30.840;2023-08-06T02:59:03;15.00;13.90;11.50
50589;PMS7003;36547;50.514;30.840;2023-08-06T03:00:11;17.40;15.60;11.70
50589;PMS7003;36547;50.514;30.840;2023-08-06T03:01:14;16.90;16.20;13.00
50589;PMS7003;36547;50.514;30.840;2023-08-06T03:02:21;14.20;14.20;11.40
50589;PMS7003;36547;50.514;30.840;2023-08-06T03:03:35;17.00;16.60;12.90
50589;PMS7003;36547;50.514;30.840;2023-08-06T03:04:39;15.20;15.20;11.60
50589;PMS7003;36547;50.514;30.840;2023-08-06T03:05:50;14.10;14.10;11.00
50589;PMS7003;36547;50.514;30.840;2023-08-06T03:06:49;18.60;17.80;13.90
50589;PMS7003;36547;50.514;30.840;2023-08-06T03:07:53;17.10;16.50;12.40
50589;PMS7003;36547;50.514;30.840;2023-08-06T03:08:57;15.60;14.10;11.80
50589;PMS7003;36547;50.514;30.840;2023-08-06T03:10:00;15.50;14.80;12.20
50589;PMS7003;36547;50.514;30.840;2023-08-06T03:11:02;17.50;15.50;12.40
50589;PMS7003;36547;50.514;30.840;2023-08-06T03:12:59;14.40;14.40;11.50
50589;PMS7003;36547;50.514;30.840;2023-08-06T03:14:03;15.50;14.20;11.90
50589;PMS7003;36547;50.514;30.840;2023-08-06T03:15:06;17.20;16.40;12.30
50589;PMS7003;36547;50.514;30.840;2023-08-06T03:16:09;16.20;16.20;11.90
50589;PMS7003;36547;50.514;30.840;2023-08-06T03:17:11;17.80;15.70;12.70
50589;PMS7003;36547;50.514;30.840;2023-08-06T03:18:15;17.30;15.40;12.70
50589;PMS7003;36547;50.514;30.840;2023-08-06T03:19:18;16.40;15.50;12.30
50589;PMS7003;36547;50.514;30.840;2023-08-06T03:20:20;15.40;15.10;11.50
50589;PMS7003;36547;50.514;30.840;2023-08-06T03:21:24;12.70;12.30;8.50
50589;PMS7003;36547;50.514;30.840;2023-08-06T03:22:27;18.60;17.10;11.90
50589;PMS7003;36547;50.514;30.840;2023-08-06T03:23:29;17.10;15.30;11.80
50589;PMS7003;36547;50.514;30.840;2023-08-06T03:24:32;17.90;17.10;12.80
50589;PMS7003;36547;50.514;30.840;2023-08-06T03:25:35;17.30;16.50;12.80
50589;PMS7003;36547;50.514;30.840;2023-08-06T03:26:38;17.60;16.70;11.90
50589;PMS7003;36547;50.514;30.840;2023-08-06T03:27:41;17.64;16.18;12.36
50589;PMS7003;36547;50.514;30.840;2023-08-06T03:28:45;16.10;15.20;12.40
50589;PMS7003;36547;50.514;30.840;2023-08-06T03:29:49;16.60;15.20;12.20
50589;PMS7003;36547;50.514;30.840;2023-08-06T03:31:02;14.40;14.20;11.60
50589;PMS7003;36547;50.514;30.840;2023-08-06T03:32:16;16.20;15.80;12.20
50589;PMS7003;36547;50.514;30.840;2023-08-06T03:33:19;17.60;16.20;12.40
50589;PMS7003;36547;50.514;30.840;2023-08-06T03:34:21;15.20;15.20;11.60
50589;PMS7003;36547;50.514;30.840;2023-08-06T03:35:24;17.00;17.00;12.10
50589;PMS7003;36547;50.514;30.840;2023-08-06T03:36:27;17.80;15.00;11.30
50589;PMS7003;36547;50.514;30.840;2023-08-06T03:37:30;18.18;16.73;13.18
50589;PMS7003;36547;50.514;30.840;2023-08-06T03:38:33;16.50;15.20;11.50
50589;PMS7003;36547;50.514;30.840;2023-08-06T03:39:37;16.40;15.30;12.00
50589;PMS7003;36547;50.514;30.840;2023-08-06T03:40:39;14.50;14.50;11.20
50589;PMS7003;36547;50.514;30.840;2023-08-06T03:41:43;14.80;14.80;12.00
50589;PMS7003;36547;50.514;30.840;2023-08-06T03:42:46;18.10;17.60;12.30
50589;PMS7003;36547;50.514;30.840;2023-08-06T03:43:48;16.70;15.70;11.80
50589;PMS7003;36547;50.514;30.840;2023-08-06T03:44:53;15.60;15.60;12.40
50589;PMS7003;36547;50.514;30.840;2023-08-06T03:45:55;17.36;16.91;12.91
50589;PMS7003;36547;50.514;30.840;2023-08-06T03:46:58;17.70;15.80;12.30
50589;PMS7003;36547;50.514;30.840;2023-08-06T03:48:00;14.50;14.50;11.40
50589;PMS7003;36547;50.514;30.840;2023-08-06T03:49:04;14.70;14.70;12.10
50589;PMS7003;36547;50.514;30.840;2023-08-06T03:50:07;16.36;16.18;12.09
50589;PMS7003;36547;50.514;30.840;2023-08-06T03:51:10;16.36;14.64;11.18
50589;PMS7003;36547;50.514;30.840;2023-08-06T03:52:12;16.00;15.20;11.50
50589;PMS7003;36547;50.514;30.840;2023-08-06T03:53:15;16.20;15.60;12.10
50589;PMS7003;36547;50.514;30.840;2023-08-06T03:54:18;17.90;15.40;13.10
50589;PMS7003;36547;50.514;30.840;2023-08-06T03:55:21;17.27;15.73;12.36
50589;PMS7003;36547;50.514;30.840;2023-08-06T03:56:23;17.91;16.64;13.45
50589;PMS7003;36547;50.514;30.840;2023-08-06T03:57:27;17.40;17.30;14.40
50589;PMS7003;36547;50.514;30.840;2023-08-06T03:58:30;18.90;16.90;13.10
50589;PMS7003;36547;50.514;30.840;2023-08-06T03:59:33;17.20;16.10;11.80
50589;PMS7003;36547;50.514;30.840;2023-08-06T04:00:35;17.70;16.50;12.80
50589;PMS7003;36547;50.514;30.840;2023-08-06T04:01:38;15.40;15.40;12.00
50589;PMS7003;36547;50.514;30.840;2023-08-06T04:02:41;17.90;17.40;13.40
50589;PMS7003;36547;50.514;30.840;2023-08-06T04:03:45;20.50;18.40;13.50
50589;PMS7003;36547;50.514;30.840;2023-08-06T04:04:48;16.40;16.20;13.40
50589;PMS7003;36547;50.514;30.840;2023-08-06T04:05:51;18.60;17.80;12.90
50589;PMS7003;36547;50.514;30.840;2023-08-06T04:06:55;19.00;18.10;13.20
50589;PMS7003;36547;50.514;30.840;2023-08-06T04:07:57;18.70;17.10;13.10
50589;PMS7003;36547;50.514;30.840;2023-08-06T04:09:00;14.70;14.20;12.00
50589;PMS7003;36547;50.514;30.840;2023-08-06T04:10:03;16.60;16.30;12.10
50589;PMS7003;36547;50.514;30.840;2023-08-06T04:11:06;16.30;16.30;12.60
50589;PMS7003;36547;50.514;30.840;2023-08-06T04:12:08;16.30;15.10;11.90
50589;PMS7003;36547;50.514;30.840;2023-08-06T04:13:11;16.70;16.00;13.40
50589;PMS7003;36547;50.514;30.840;2023-08-06T04:14:13;17.60;15.90;13.10
50589;PMS7003;36547;50.514;30.840;2023-08-06T04:15:16;21.20;18.70;14.40
50589;PMS7003;36547;50.514;30.840;2023-08-06T04:16:18;16.90;16.70;12.50
50589;PMS7003;36547;50.514;30.840;2023-08-06T04:17:22;19.90;19.00;15.80
50589;PMS7003;36547;50.514;30.840;2023-08-06T04:18:25;18.00;16.50;13.10
50589;PMS7003;36547;50.514;30.840;2023-08-06T04:19:28;20.20;17.40;13.60
50589;PMS7003;36547;50.514;30.840;2023-08-06T04:20:30;20.50;20.50;14.80
50589;PMS7003;36547;50.514;30.840;2023-08-06T04:21:33;19.27;19.27;14.73
50589;PMS7003;36547;50.514;30.840;2023-08-06T04:22:35;21.00;18.80;14.30
50589;PMS7003;36547;50.514;30.840;2023-08-06T04:23:39;20.30;20.00;15.60
50589;PMS7003;36547;50.514;30.840;2023-08-06T04:24:43;20.00;18.00;14.80
50589;PMS7003;36547;50.514;30.840;2023-08-06T04:25:46;20.20;18.70;15.30
50589;PMS7003;36547;50.514;30.840;2023-08-06T04:26:49;21.90;19.70;15.60
50589;PMS7003;36547;50.514;30.840;2023-08-06T04:27:51;18.80;18.80;15.20
50589;PMS7003;36547;50.514;30.840;2023-08-06T04:28:54;19.36;18.36;14.45
50589;PMS7003;36547;50.514;30.840;2023-08-06T04:29:57;19.50;18.40;14.70
50589;PMS7003;36547;50.514;30.840;2023-08-06T04:31:01;19.70;19.60;14.50
50589;PMS7003;36547;50.514;30.840;2023-08-06T04:32:07;18.90;18.90;14.50
50589;PMS7003;36547;50.514;30.840;2023-08-06T04:33:11;18.00;16.70;12.50
50589;PMS7003;36547;50.514;30.840;2023-08-06T04:34:14;17.20;17.00;13.30
50589;PMS7003;36547;50.514;30.840;2023-08-06T04:35:17;18.10;17.80;13.30
50589;PMS7003;36547;50.514;30.840;2023-08-06T04:36:19;18.20;17.70;14.00
50589;PMS7003;36547;50.514;30.840;2023-08-06T04:37:22;17.00;17.00;12.40
50589;PMS7003;36547;50.514;30.840;2023-08-06T04:38:24;14.80;14.80;11.50
50589;PMS7003;36547;50.514;30.840;2023-08-06T04:39:28;20.50;18.50;14.70
50589;PMS7003;36547;50.514;30.840;2023-08-06T04:40:33;19.36;16.64;13.45
50589;PMS7003;36547;50.514;30.840;2023-08-06T04:41:36;20.00;18.20;14.80
50589;PMS7003;36547;50.514;30.840;2023-08-06T04:42:40;18.27;16.91;13.73
50589;PMS7003;36547;50.514;30.840;2023-08-06T04:43:42;20.50;20.30;15.60
50589;PMS7003;36547;50.514;30.840;2023-08-06T04:44:45;17.60;16.10;12.50
50589;PMS7003;36547;50.514;30.840;2023-08-06T04:45:49;22.40;19.00;15.20
50589;PMS7003;36547;50.514;30.840;2023-08-06T04:46:53;20.60;20.10;14.60
50589;PMS7003;36547;50.514;30.840;2023-08-06T04:47:56;20.00;19.80;14.90
50589;PMS7003;36547;50.514;30.840;2023-08-06T04:48:58;20.50;20.50;15.90
50589;PMS7003;36547;50.514;30.840;2023-08-06T04:50:01;21.10;21.10;16.40
50589;PMS7003;36547;50.514;30.840;2023-08-06T04:51:03;20.30;19.10;15.10
50589;PMS7003;36547;50.514;30.840;2023-08-06T04:52:05;18.30;17.40;13.30
50589;PMS7003;36547;50.514;30.840;2023-08-06T04:53:08;20.30;19.20;15.10
50589;PMS7003;36547;50.514;30.840;2023-08-06T04:54:10;19.50;19.50;16.20
50589;PMS7003;36547;50.514;30.840;2023-08-06T04:55:13;19.80;18.80;13.90
50589;PMS7003;36547;50.514;30.840;2023-08-06T04:56:15;20.70;20.10;15.00
50589;PMS7003;36547;50.514;30.840;2023-08-06T04:57:17;20.70;19.10;16.30
50589;PMS7003;36547;50.514;30.840;2023-08-06T04:58:20;21.30;21.30;16.90
50589;PMS7003;36547;50.514;30.840;2023-08-06T04:59:23;24.27;20.91;15.73
50589;PMS7003;36547;50.514;30.840;2023-08-06T05:00:25;21.40;19.90;15.20
50589;PMS7003;36547;50.514;30.840;2023-08-06T05:01:28;23.20;23.10;17.60
50589;PMS7003;36547;50.514;30.840;2023-08-06T05:02:30;22.50;20.30;15.40
50589;PMS7003;36547;50.514;30.840;2023-08-06T05:03:32;20.40;20.40;15.90
50589;PMS7003;36547;50.514;30.840;2023-08-06T05:04:35;21.40;20.60;15.80
50589;PMS7003;36547;50.514;30.840;2023-08-06T05:05:39;20.60;20.60;16.60
50589;PMS7003;36547;50.514;30.840;2023-08-06T05:06:44;23.00;21.50;16.60
50589;PMS7003;36547;50.514;30.840;2023-08-06T05:07:48;21.73;21.27;15.91
50589;PMS7003;36547;50.514;30.840;2023-08-06T05:08:52;22.40;22.40;16.60
50589;PMS7003;36547;50.514;30.840;2023-08-06T05:09:55;23.80;23.80;18.10
50589;PMS7003;36547;50.514;30.840;2023-08-06T05:10:58;24.40;22.60;17.10
50589;PMS7003;36547;50.514;30.840;2023-08-06T05:12:01;24.10;22.30;16.80
50589;PMS7003;36547;50.514;30.840;2023-08-06T05:13:06;23.00;21.50;16.60
50589;PMS7003;36547;50.514;30.840;2023-08-06T05:14:08;22.30;21.00;16.60
50589;PMS7003;36547;50.514;30.840;2023-08-06T05:15:11;21.40;21.40;16.10
50589;PMS7003;36547;50.514;30.840;2023-08-06T05:16:15;20.20;19.80;16.10
50589;PMS7003;36547;50.514;30.840;2023-08-06T05:17:18;21.60;21.20;16.10
50589;PMS7003;36547;50.514;30.840;2023-08-06T05:18:20;23.50;22.10;17.70
50589;PMS7003;36547;50.514;30.840;2023-08-06T05:19:22;22.90;20.80;16.40
50589;PMS7003;36547;50.514;30.840;2023-08-06T05:20:25;21.80;21.50;16.00
50589;PMS7003;36547;50.514;30.840;2023-08-06T05:21:27;23.00;21.30;16.20
50589;PMS7003;36547;50.514;30.840;2023-08-06T05:22:30;20.40;20.40;16.00
50589;PMS7003;36547;50.514;30.840;2023-08-06T05:23:32;24.30;23.30;17.90
50589;PMS7003;36547;50.514;30.840;2023-08-06T05:24:34;20.60;19.80;15.70
50589;PMS7003;36547;50.514;30.840;2023-08-06T05:25:38;21.20;21.10;16.30
50589;PMS7003;36547;50.514;30.840;2023-08-06T05:26:41;22.36;21.27;15.91
50589;PMS7003;36547;50.514;30.840;2023-08-06T05:27:43;20.10;20.10;14.80
50589;PMS7003;36547;50.514;30.840;2023-08-06T05:28:46;22.60;21.40;16.30
50589;PMS7003;36547;50.514;30.840;2023-08-06T05:29:49;21.00;19.40;15.40
50589;PMS7003;36547;50.514;30.840;2023-08-06T05:30:52;22.45;21.45;17.45
50589;PMS7003;36547;50.514;30.840;2023-08-06T05:31:54;23.20;22.80;17.80
50589;PMS7003;36547;50.514;30.840;2023-08-06T05:32:58;20.80;20.40;17.50
50589;PMS7003;36547;50.514;30.840;2023-08-06T05:34:00;21.10;20.50;16.40
50589;PMS7003;36547;50.514;30.840;2023-08-06T05:35:03;20.10;20.10;17.10
50589;PMS7003;36547;50.514;30.840;2023-08-06T05:36:06;19.80;19.80;15.60
50589;PMS7003;36547;50.514;30.840;2023-08-06T05:37:09;19.82;19.82;15.00
50589;PMS7003;36547;50.514;30.840;2023-08-06T05:38:12;16.27;15.82;11.91
50589;PMS7003;36547;50.514;30.840;2023-08-06T05:39:15;21.00;19.64;16.09
50589;PMS7003;36547;50.514;30.840;2023-08-06T05:40:17;22.20;20.80;16.00
50589;PMS7003;36547;50.514;30.840;2023-08-06T05:41:20;20.30;20.30;16.30
50589;PMS7003;36547;50.514;30.840;2023-08-06T05:42:22;19.10;18.50;14.70
50589;PMS7003;36547;50.514;30.840;2023-08-06T05:43:25;21.90;21.10;16.30
50589;PMS7003;36547;50.514;30.840;2023-08-06T05:44:27;20.80;20.00;15.50
50589;PMS7003;36547;50.514;30.840;2023-08-06T05:45:30;20.30;20.30;16.60
50589;PMS7003;36547;50.514;30.840;2023-08-06T05:46:32;22.60;21.50;15.70
50589;PMS7003;36547;50.514;30.840;2023-08-06T05:47:35;19.10;18.90;14.80
50589;PMS7003;36547;50.514;30.840;2023-08-06T05:48:38;19.30;18.70;13.90
50589;PMS7003;36547;50.514;30.840;2023-08-06T05:49:41;24.00;22.70;15.50
50589;PMS7003;36547;50.514;30.840;2023-08-06T05:50:44;18.00;17.64;13.55
50589;PMS7003;36547;50.514;30.840;2023-08-06T05:51:46;23.00;22.50;15.90
50589;PMS7003;36547;50.514;30.840;2023-08-06T05:52:49;20.45;20.00;15.18
50589;PMS7003;36547;50.514;30.840;2023-08-06T05:53:51;19.20;18.80;14.70
50589;PMS7003;36547;50.514;30.840;2023-08-06T05:54:54;20.20;20.20;16.10
50589;PMS7003;36547;50.514;30.840;2023-08-06T05:55:56;21.40;19.50;15.20
50589;PMS7003;36547;50.514;30.840;2023-08-06T05:56:58;20.80;19.30;15.80
50589;PMS7003;36547;50.514;30.840;2023-08-06T05:58:01;18.60;18.20;15.10